createdAt,value
2018-01-11T00:01:43.334Z,0.00
2018-01-11T00:02:43.390Z,0.00
2018-01-11T00:04:36.390Z,0.00
2018-01-11T00:05:36.426Z,0.00
2018-01-11T00:07:29.410Z,0.00
2018-01-11T00:08:29.459Z,0.00
2018-01-11T00:10:22.459Z,0.00
2018-01-11T00:11:22.494Z,0.00
2018-01-11T00:13:15.501Z,0.00
2018-01-11T00:14:15.536Z,0.00
2018-01-11T00:16:08.520Z,0.00
2018-01-11T00:17:08.572Z,0.00
2018-01-11T00:19:01.586Z,0.00
2018-01-11T00:20:01.623Z,0.00
2018-01-11T00:21:54.631Z,0.00
2018-01-11T00:22:54.661Z,0.00
2018-01-11T00:24:47.664Z,0.00
2018-01-11T00:25:47.723Z,0.00
2018-01-11T00:27:40.714Z,0.00
2018-01-11T00:28:40.734Z,0.00
2018-01-11T00:30:33.797Z,0.00
2018-01-11T00:31:33.836Z,0.00
2018-01-11T00:33:26.835Z,0.00
2018-01-11T00:34:26.871Z,0.00
2018-01-11T00:36:19.863Z,0.00
2018-01-11T00:37:19.906Z,0.00
2018-01-11T00:39:12.916Z,0.00
2018-01-11T00:40:12.939Z,0.00
2018-01-11T00:42:05.918Z,0.00
2018-01-11T00:43:05.973Z,0.00
2018-01-11T00:44:58.978Z,0.00
2018-01-11T00:45:59.025Z,0.00
2018-01-11T00:47:52.507Z,0.00
2018-01-11T00:48:52.559Z,0.00
2018-01-11T00:50:45.564Z,0.00
2018-01-11T00:51:45.598Z,0.00
2018-01-11T00:53:38.602Z,0.00
2018-01-11T00:54:38.636Z,0.00
2018-01-11T00:56:31.633Z,0.00
2018-01-11T00:57:31.675Z,0.00
2018-01-11T00:59:24.674Z,0.00
2018-01-11T01:00:24.705Z,0.00
2018-01-11T01:02:17.689Z,0.00
2018-01-11T01:03:17.745Z,0.00
2018-01-11T01:05:10.739Z,0.00
2018-01-11T01:06:10.775Z,0.00
2018-01-11T01:08:03.754Z,0.00
2018-01-11T01:09:03.810Z,0.00
2018-01-11T01:10:56.810Z,0.00
2018-01-11T01:11:56.847Z,0.00
2018-01-11T01:13:49.846Z,0.00
2018-01-11T01:14:49.879Z,0.00
2018-01-11T01:16:42.863Z,0.00
2018-01-11T01:17:42.915Z,0.00
2018-01-11T01:19:35.921Z,0.00
2018-01-11T01:20:35.958Z,0.00
2018-01-11T01:22:28.942Z,0.00
2018-01-11T01:23:28.993Z,0.00
2018-01-11T01:25:21.991Z,0.00
2018-01-11T01:26:22.027Z,0.00
2018-01-11T01:28:15.008Z,0.00
2018-01-11T01:29:15.065Z,0.00
2018-01-11T01:31:08.063Z,0.00
2018-01-11T01:32:08.098Z,0.00
2018-01-11T01:34:01.106Z,0.00
2018-01-11T01:35:01.166Z,0.00
2018-01-11T01:36:54.127Z,0.00
2018-01-11T01:37:54.180Z,0.00
2018-01-11T01:39:47.178Z,0.00
2018-01-11T01:40:47.213Z,0.00
2018-01-11T01:42:40.204Z,0.00
2018-01-11T01:43:40.248Z,0.00
2018-01-11T01:45:33.247Z,0.00
2018-01-11T01:46:33.286Z,0.00
2018-01-11T01:48:26.771Z,0.00
2018-01-11T01:49:26.823Z,0.00
2018-01-11T01:51:19.822Z,0.00
2018-01-11T01:52:19.860Z,0.00
2018-01-11T01:54:12.858Z,0.00
2018-01-11T01:55:12.908Z,0.00
2018-01-11T01:57:05.929Z,0.00
2018-01-11T01:58:05.928Z,0.00
2018-01-11T01:59:58.928Z,0.00
2018-01-11T02:00:58.962Z,0.00
2018-01-11T02:02:51.946Z,0.00
2018-01-11T02:03:51.999Z,0.00
2018-01-11T02:05:45.001Z,0.00
2018-01-11T02:06:45.034Z,0.00
2018-01-11T02:08:38.018Z,0.00
2018-01-11T02:09:38.068Z,0.00
2018-01-11T02:11:31.100Z,0.00
2018-01-11T02:12:31.120Z,0.00
2018-01-11T02:14:24.118Z,0.00
2018-01-11T02:15:24.158Z,0.00
2018-01-11T02:17:17.136Z,0.00
2018-01-11T02:18:17.187Z,0.00
2018-01-11T02:20:10.194Z,0.00
2018-01-11T02:21:10.226Z,0.00
2018-01-11T02:23:03.204Z,0.00
2018-01-11T02:24:03.267Z,0.00
2018-01-11T02:25:56.260Z,0.00
2018-01-11T02:26:56.292Z,0.00
2018-01-11T02:28:49.271Z,0.00
2018-01-11T02:29:49.325Z,0.00
2018-01-11T02:31:42.326Z,0.00
2018-01-11T02:32:42.360Z,0.00
2018-01-11T02:34:35.364Z,0.00
2018-01-11T02:35:35.400Z,0.00
2018-01-11T02:37:28.378Z,0.00
2018-01-11T02:38:28.431Z,0.00
2018-01-11T02:40:21.429Z,0.00
2018-01-11T02:41:21.465Z,0.00
2018-01-11T02:43:14.448Z,0.00
2018-01-11T02:44:14.507Z,0.00
2018-01-11T02:46:07.499Z,0.00
2018-01-11T02:47:07.534Z,0.00
2018-01-11T02:49:00.512Z,0.00
2018-01-11T02:50:00.568Z,0.00
2018-01-11T02:51:53.579Z,0.00
2018-01-11T02:52:53.618Z,0.00
2018-01-11T02:54:46.616Z,0.00
2018-01-11T02:55:46.653Z,0.00
2018-01-11T02:57:39.633Z,0.00
2018-01-11T02:58:39.688Z,0.00
2018-01-11T03:00:32.686Z,0.00
2018-01-11T03:01:32.723Z,0.00
2018-01-11T03:03:25.698Z,0.00
2018-01-11T03:04:25.773Z,0.00
2018-01-11T03:06:18.757Z,0.00
2018-01-11T03:07:18.790Z,0.00
2018-01-11T03:09:11.792Z,0.00
2018-01-11T03:10:11.824Z,0.00
2018-01-11T03:12:04.825Z,0.00
2018-01-11T03:13:04.877Z,0.00
2018-01-11T03:14:57.847Z,0.00
2018-01-11T03:15:57.897Z,0.00
2018-01-11T03:17:51.006Z,0.00
2018-01-11T03:18:50.931Z,0.00
2018-01-11T03:20:43.951Z,0.00
2018-01-11T03:21:43.968Z,0.00
2018-01-11T03:23:36.988Z,0.00
2018-01-11T03:24:37.002Z,0.00
2018-01-11T03:26:30.014Z,0.00
2018-01-11T03:27:30.034Z,0.00
2018-01-11T03:29:23.018Z,0.00
2018-01-11T03:30:23.111Z,0.00
2018-01-11T03:32:16.068Z,0.00
2018-01-11T03:33:16.169Z,0.00
2018-01-11T03:35:09.084Z,0.00
2018-01-11T03:36:09.281Z,0.00
2018-01-11T03:38:02.157Z,0.00
2018-01-11T03:39:02.201Z,0.00
2018-01-11T03:40:55.187Z,0.00
2018-01-11T03:41:55.240Z,0.00
2018-01-11T03:43:48.214Z,0.00
2018-01-11T03:44:48.302Z,0.00
2018-01-11T03:46:41.257Z,0.00
2018-01-11T03:47:41.301Z,0.00
2018-01-11T03:49:34.290Z,0.00
2018-01-11T03:50:34.379Z,0.00
2018-01-11T03:52:27.327Z,0.00
2018-01-11T03:53:27.428Z,0.00
2018-01-11T03:55:20.338Z,0.00
2018-01-11T03:56:20.425Z,0.00
2018-01-11T03:58:13.392Z,0.00
2018-01-11T03:59:13.427Z,0.00
2018-01-11T04:01:06.423Z,0.00
2018-01-11T04:02:06.460Z,0.00
2018-01-11T04:03:59.447Z,0.00
2018-01-11T04:04:59.536Z,0.00
2018-01-11T04:06:52.521Z,0.00
2018-01-11T04:07:52.540Z,0.00
2018-01-11T04:09:45.521Z,0.00
2018-01-11T04:10:45.582Z,0.00
2018-01-11T04:12:38.572Z,0.00
2018-01-11T04:13:38.608Z,0.00
2018-01-11T04:15:31.587Z,0.00
2018-01-11T04:16:31.641Z,0.00
2018-01-11T04:18:24.647Z,0.00
2018-01-11T04:19:24.699Z,0.00
2018-01-11T04:21:17.681Z,0.00
2018-01-11T04:22:17.715Z,0.00
2018-01-11T04:24:10.699Z,0.00
2018-01-11T04:25:10.763Z,0.00
2018-01-11T04:27:03.753Z,0.00
2018-01-11T04:28:03.790Z,0.00
2018-01-11T04:29:56.817Z,0.00
2018-01-11T04:30:56.824Z,0.00
2018-01-11T04:32:49.891Z,0.00
2018-01-11T04:33:49.861Z,0.00
2018-01-11T04:35:42.861Z,0.00
2018-01-11T04:36:42.895Z,0.00
2018-01-11T04:38:35.896Z,0.00
2018-01-11T04:39:35.970Z,0.00
2018-01-11T04:41:28.930Z,0.00
2018-01-11T04:42:28.963Z,0.00
2018-01-11T04:44:21.953Z,0.00
2018-01-11T04:45:21.996Z,0.00
2018-01-11T04:47:14.997Z,0.00
2018-01-11T04:48:15.039Z,0.00
2018-01-11T04:50:08.013Z,0.00
2018-01-11T04:51:08.064Z,0.00
2018-01-11T04:53:01.067Z,0.00
2018-01-11T04:54:01.102Z,0.00
2018-01-11T04:55:54.078Z,0.00
2018-01-11T04:56:54.135Z,0.00
2018-01-11T04:58:47.144Z,0.00
2018-01-11T04:59:47.179Z,0.00
2018-01-11T05:01:40.178Z,0.00
2018-01-11T05:02:40.237Z,0.00
2018-01-11T05:04:33.193Z,0.00
2018-01-11T05:05:33.251Z,0.00
2018-01-11T05:07:26.246Z,0.00
2018-01-11T05:08:26.282Z,0.00
2018-01-11T05:10:19.260Z,0.00
2018-01-11T05:11:19.315Z,0.00
2018-01-11T05:13:12.312Z,0.00
2018-01-11T05:14:12.346Z,0.00
2018-01-11T05:16:05.332Z,0.00
2018-01-11T05:17:05.380Z,0.00
2018-01-11T05:18:58.377Z,0.00
2018-01-11T05:19:58.414Z,0.00
2018-01-11T05:21:51.411Z,0.00
2018-01-11T05:22:51.448Z,0.00
2018-01-11T05:24:44.433Z,0.00
2018-01-11T05:25:44.512Z,0.00
2018-01-11T05:27:37.492Z,0.00
2018-01-11T05:28:37.527Z,0.00
2018-01-11T05:30:30.506Z,0.00
2018-01-11T05:31:30.563Z,0.00
2018-01-11T05:33:23.558Z,0.00
2018-01-11T05:34:23.594Z,0.00
2018-01-11T05:36:16.585Z,0.00
2018-01-11T05:37:16.645Z,0.00
2018-01-11T05:39:09.640Z,0.00
2018-01-11T05:40:09.676Z,0.00
2018-01-11T05:42:02.678Z,0.00
2018-01-11T05:43:02.714Z,0.00
2018-01-11T05:44:55.692Z,0.00
2018-01-11T05:45:55.749Z,0.00
2018-01-11T05:47:48.767Z,0.00
2018-01-11T05:48:48.780Z,0.00
2018-01-11T05:50:41.757Z,0.00
2018-01-11T05:51:41.814Z,0.00
2018-01-11T05:53:34.818Z,0.00
2018-01-11T05:54:34.853Z,0.00
2018-01-11T05:56:27.837Z,0.00
2018-01-11T05:57:27.888Z,0.00
2018-01-11T05:59:20.897Z,0.00
2018-01-11T06:00:20.932Z,0.00
2018-01-11T06:02:14.473Z,0.00
2018-01-11T06:03:13.972Z,0.00
2018-01-11T06:05:06.955Z,0.00
2018-01-11T06:06:07.006Z,0.00
2018-01-11T06:08:00.005Z,0.00
2018-01-11T06:09:00.039Z,0.00
2018-01-11T06:10:53.021Z,0.00
2018-01-11T06:11:53.072Z,0.00
2018-01-11T06:13:46.590Z,0.00
2018-01-11T06:14:46.623Z,0.00
2018-01-11T06:16:39.602Z,0.00
2018-01-11T06:17:39.667Z,0.00
2018-01-11T06:19:32.657Z,0.00
2018-01-11T06:20:32.691Z,0.00
2018-01-11T06:22:25.693Z,0.00
2018-01-11T06:23:25.726Z,0.00
2018-01-11T06:25:18.703Z,0.00
2018-01-11T06:26:18.759Z,0.00
2018-01-11T06:28:11.754Z,0.00
2018-01-11T06:29:11.795Z,0.00
2018-01-11T06:31:04.768Z,0.00
2018-01-11T06:32:04.827Z,0.00
2018-01-11T06:33:57.828Z,0.00
2018-01-11T06:34:57.863Z,0.00
2018-01-11T06:36:50.839Z,0.00
2018-01-11T06:37:50.895Z,0.00
2018-01-11T06:39:43.893Z,0.00
2018-01-11T06:40:43.930Z,0.00
2018-01-11T06:42:36.928Z,0.00
2018-01-11T06:43:36.963Z,0.00
2018-01-11T06:45:29.941Z,0.00
2018-01-11T06:46:29.998Z,0.00
2018-01-11T06:48:23.001Z,0.00
2018-01-11T06:49:23.033Z,0.00
2018-01-11T06:51:16.016Z,0.00
2018-01-11T06:52:16.071Z,0.00
2018-01-11T06:54:09.068Z,0.00
2018-01-11T06:55:09.108Z,0.00
2018-01-11T06:57:02.080Z,0.00
2018-01-11T06:58:02.139Z,0.00
2018-01-11T06:59:55.135Z,0.00
2018-01-11T07:00:55.171Z,0.00
2018-01-11T07:02:48.174Z,0.00
2018-01-11T07:03:48.214Z,0.00
2018-01-11T07:05:41.260Z,0.00
2018-01-11T07:06:41.247Z,0.00
2018-01-11T07:08:34.246Z,0.00
2018-01-11T07:09:34.281Z,0.00
2018-01-11T07:11:27.266Z,0.00
2018-01-11T07:12:27.314Z,0.00
2018-01-11T07:14:20.318Z,0.00
2018-01-11T07:15:20.354Z,0.00
2018-01-11T07:17:13.385Z,0.00
2018-01-11T07:18:13.398Z,0.00
2018-01-11T07:20:06.394Z,0.00
2018-01-11T07:21:06.430Z,0.00
2018-01-11T07:22:59.437Z,0.00
2018-01-11T07:23:59.465Z,0.00
2018-01-11T07:25:52.464Z,0.00
2018-01-11T07:26:52.499Z,0.00
2018-01-11T07:28:45.511Z,0.00
2018-01-11T07:29:45.541Z,0.00
2018-01-11T07:31:38.520Z,5.63
2018-01-11T07:32:38.577Z,5.63
2018-01-11T07:34:31.578Z,5.63
2018-01-11T07:35:31.620Z,5.63
2018-01-11T07:37:24.592Z,5.63
2018-01-11T07:38:24.650Z,11.25
2018-01-11T07:40:17.644Z,11.25
2018-01-11T07:41:17.681Z,11.25
2018-01-11T07:43:10.688Z,11.25
2018-01-11T07:44:10.723Z,11.25
2018-01-11T07:46:03.701Z,16.88
2018-01-11T07:47:03.758Z,16.88
2018-01-11T07:48:56.788Z,16.88
2018-01-11T07:49:56.793Z,22.50
2018-01-11T07:51:49.778Z,22.50
2018-01-11T07:52:49.824Z,28.13
2018-01-11T07:54:42.831Z,28.13
2018-01-11T07:55:42.859Z,33.75
2018-01-11T07:57:35.842Z,39.38
2018-01-11T07:58:35.896Z,39.38
2018-01-11T08:00:28.895Z,45.00
2018-01-11T08:01:28.932Z,45.00
2018-01-11T08:03:21.928Z,45.00
2018-01-11T08:04:22.044Z,45.00
2018-01-11T08:06:14.948Z,50.63
2018-01-11T08:07:15.003Z,50.63
2018-01-11T08:09:08.000Z,50.63
2018-01-11T08:10:08.035Z,56.25
2018-01-11T08:12:01.012Z,56.25
2018-01-11T08:13:01.069Z,56.25
2018-01-11T08:14:54.068Z,61.88
2018-01-11T08:15:54.104Z,61.88
2018-01-11T08:17:47.087Z,67.50
2018-01-11T08:18:47.138Z,73.13
2018-01-11T08:20:40.135Z,78.75
2018-01-11T08:21:40.171Z,78.75
2018-01-11T08:23:33.171Z,84.38
2018-01-11T08:24:33.208Z,84.38
2018-01-11T08:26:26.189Z,84.38
2018-01-11T08:27:26.241Z,84.38
2018-01-11T08:29:19.240Z,84.38
2018-01-11T08:30:19.277Z,84.38
2018-01-11T08:32:12.254Z,90.00
2018-01-11T08:33:12.314Z,90.00
2018-01-11T08:35:05.308Z,95.63
2018-01-11T08:36:05.345Z,95.63
2018-01-11T08:37:58.327Z,101.25
2018-01-11T08:38:58.386Z,106.88
2018-01-11T08:40:51.382Z,112.50
2018-01-11T08:41:51.418Z,118.13
2018-01-11T08:43:44.423Z,123.75
2018-01-11T08:44:44.460Z,123.75
2018-01-11T08:46:37.430Z,118.13
2018-01-11T08:47:37.488Z,118.13
2018-01-11T08:49:30.499Z,118.13
2018-01-11T08:50:30.534Z,118.13
2018-01-11T08:52:23.517Z,123.75
2018-01-11T08:53:23.574Z,129.38
2018-01-11T08:55:16.578Z,135.00
2018-01-11T08:56:16.610Z,135.00
2018-01-11T08:58:09.606Z,146.25
2018-01-11T08:59:09.661Z,140.63
2018-01-11T09:01:02.671Z,146.25
2018-01-11T09:02:02.697Z,151.88
2018-01-11T09:03:55.696Z,151.88
2018-01-11T09:04:55.729Z,151.88
2018-01-11T09:06:48.708Z,157.50
2018-01-11T09:07:48.765Z,157.50
2018-01-11T09:09:41.770Z,168.75
2018-01-11T09:10:41.806Z,168.75
2018-01-11T09:12:34.783Z,174.38
2018-01-11T09:13:34.840Z,180.00
2018-01-11T09:15:27.845Z,180.00
2018-01-11T09:16:27.883Z,180.00
2018-01-11T09:18:20.859Z,185.63
2018-01-11T09:19:20.917Z,191.25
2018-01-11T09:21:13.919Z,191.25
2018-01-11T09:22:13.954Z,196.88
2018-01-11T09:24:06.961Z,191.25
2018-01-11T09:25:06.995Z,191.25
2018-01-11T09:26:59.976Z,196.88
2018-01-11T09:28:00.036Z,196.88
2018-01-11T09:29:53.036Z,230.63
2018-01-11T09:30:53.072Z,236.25
2018-01-11T09:32:46.050Z,247.50
2018-01-11T09:33:46.107Z,247.50
2018-01-11T09:35:39.106Z,253.13
2018-01-11T09:36:39.142Z,247.50
2018-01-11T09:38:32.127Z,253.13
2018-01-11T09:39:32.180Z,258.75
2018-01-11T09:41:25.184Z,264.38
2018-01-11T09:42:25.219Z,264.38
2018-01-11T09:44:18.218Z,258.75
2018-01-11T09:45:18.259Z,253.13
2018-01-11T09:47:11.240Z,253.13
2018-01-11T09:48:11.294Z,247.50
2018-01-11T09:50:04.293Z,241.88
2018-01-11T09:51:04.334Z,241.88
2018-01-11T09:52:57.313Z,236.25
2018-01-11T09:53:57.366Z,236.25
2018-01-11T09:55:50.368Z,225.00
2018-01-11T09:56:50.406Z,230.63
2018-01-11T09:58:43.416Z,253.13
2018-01-11T09:59:43.476Z,264.38
2018-01-11T10:01:36.476Z,270.00
2018-01-11T10:02:36.573Z,264.38
2018-01-11T10:04:29.513Z,270.00
2018-01-11T10:05:29.549Z,275.63
2018-01-11T10:07:22.528Z,298.13
2018-01-11T10:08:22.596Z,303.75
2018-01-11T10:10:15.591Z,303.75
2018-01-11T10:11:15.623Z,303.75
2018-01-11T10:13:08.606Z,303.75
2018-01-11T10:14:08.668Z,309.38
2018-01-11T10:16:01.667Z,303.75
2018-01-11T10:17:01.704Z,298.13
2018-01-11T10:18:54.686Z,292.50
2018-01-11T10:19:54.743Z,292.50
2018-01-11T10:21:47.744Z,292.50
2018-01-11T10:22:47.780Z,286.88
2018-01-11T10:24:40.783Z,286.88
2018-01-11T10:25:40.818Z,286.88
2018-01-11T10:27:33.802Z,286.88
2018-01-11T10:28:33.861Z,281.25
2018-01-11T10:30:26.861Z,270.00
2018-01-11T10:31:26.898Z,264.38
2018-01-11T10:33:19.883Z,258.75
2018-01-11T10:34:19.978Z,258.75
2018-01-11T10:36:12.949Z,258.75
2018-01-11T10:37:12.977Z,258.75
2018-01-11T10:39:05.964Z,270.00
2018-01-11T10:40:06.016Z,275.63
2018-01-11T10:41:59.020Z,275.63
2018-01-11T10:42:59.055Z,275.63
2018-01-11T10:44:53.068Z,275.63
2018-01-11T10:45:52.116Z,275.63
2018-01-11T10:47:45.608Z,270.00
2018-01-11T10:48:45.663Z,270.00
2018-01-11T10:50:38.662Z,264.38
2018-01-11T10:51:38.700Z,258.75
2018-01-11T10:53:31.686Z,253.13
2018-01-11T10:54:31.744Z,253.13
2018-01-11T10:56:24.792Z,264.38
2018-01-11T10:57:24.783Z,270.00
2018-01-11T10:59:17.766Z,270.00
2018-01-11T11:00:17.822Z,270.00
2018-01-11T11:02:10.824Z,264.38
2018-01-11T11:03:10.863Z,258.75
2018-01-11T11:05:03.865Z,253.13
2018-01-11T11:06:03.903Z,253.13
2018-01-11T11:07:56.894Z,253.13
2018-01-11T11:08:56.953Z,253.13
2018-01-11T11:10:49.959Z,247.50
2018-01-11T11:11:49.996Z,241.88
2018-01-11T11:13:42.984Z,247.50
2018-01-11T11:14:43.041Z,264.38
2018-01-11T11:16:36.041Z,275.63
2018-01-11T11:17:36.079Z,270.00
2018-01-11T11:19:29.060Z,275.63
2018-01-11T11:20:29.118Z,275.63
2018-01-11T11:22:22.122Z,281.25
2018-01-11T11:23:22.157Z,286.88
2018-01-11T11:25:15.157Z,298.13
2018-01-11T11:26:15.194Z,298.13
2018-01-11T11:28:08.190Z,315.00
2018-01-11T11:29:08.237Z,320.63
2018-01-11T11:31:01.238Z,303.75
2018-01-11T11:32:01.274Z,298.13
2018-01-11T11:33:54.260Z,298.13
2018-01-11T11:34:54.316Z,298.13
2018-01-11T11:36:47.319Z,303.75
2018-01-11T11:37:47.355Z,320.63
2018-01-11T11:39:40.338Z,315.00
2018-01-11T11:40:40.396Z,309.38
2018-01-11T11:42:33.396Z,303.75
2018-01-11T11:43:33.436Z,303.75
2018-01-11T11:45:26.444Z,292.50
2018-01-11T11:46:26.476Z,286.88
2018-01-11T11:48:19.969Z,292.50
2018-01-11T11:49:20.024Z,303.75
2018-01-11T11:51:13.075Z,303.75
2018-01-11T11:52:13.066Z,309.38
2018-01-11T11:54:06.052Z,320.63
2018-01-11T11:55:06.109Z,326.25
2018-01-11T11:56:59.112Z,315.00
2018-01-11T11:57:59.149Z,309.38
2018-01-11T11:59:52.132Z,320.63
2018-01-11T12:00:52.191Z,337.50
2018-01-11T12:02:45.192Z,320.63
2018-01-11T12:03:45.233Z,326.25
2018-01-11T12:05:38.237Z,331.88
2018-01-11T12:06:38.278Z,315.00
2018-01-11T12:08:31.260Z,303.75
2018-01-11T12:09:31.319Z,298.13
2018-01-11T12:11:24.320Z,298.13
2018-01-11T12:12:24.358Z,286.88
2018-01-11T12:14:17.346Z,275.63
2018-01-11T12:15:17.406Z,270.00
2018-01-11T12:17:10.406Z,270.00
2018-01-11T12:18:10.442Z,264.38
2018-01-11T12:20:03.926Z,270.00
2018-01-11T12:21:03.984Z,270.00
2018-01-11T12:22:56.990Z,281.25
2018-01-11T12:23:57.032Z,286.88
2018-01-11T12:25:50.034Z,275.63
2018-01-11T12:26:50.073Z,270.00
2018-01-11T12:28:43.062Z,258.75
2018-01-11T12:29:43.117Z,258.75
2018-01-11T12:31:36.121Z,264.38
2018-01-11T12:32:36.167Z,258.75
2018-01-11T12:34:29.141Z,253.13
2018-01-11T12:35:29.202Z,247.50
2018-01-11T12:37:22.203Z,230.63
2018-01-11T12:38:22.240Z,236.25
2018-01-11T12:40:15.227Z,258.75
2018-01-11T12:41:15.281Z,270.00
2018-01-11T12:43:08.284Z,264.38
2018-01-11T12:44:08.323Z,258.75
2018-01-11T12:46:01.325Z,230.63
2018-01-11T12:47:01.363Z,225.00
2018-01-11T12:48:54.348Z,219.38
2018-01-11T12:49:54.405Z,225.00
2018-01-11T12:51:47.937Z,230.63
2018-01-11T12:52:47.971Z,236.25
2018-01-11T12:54:40.952Z,236.25
2018-01-11T12:55:41.010Z,230.63
2018-01-11T12:57:34.013Z,230.63
2018-01-11T12:58:34.051Z,230.63
2018-01-11T13:00:27.036Z,230.63
2018-01-11T13:01:27.092Z,230.63
2018-01-11T13:03:20.109Z,225.00
2018-01-11T13:04:20.139Z,225.00
2018-01-11T13:06:13.147Z,208.13
2018-01-11T13:07:13.183Z,196.88
2018-01-11T13:09:06.166Z,180.00
2018-01-11T13:10:06.219Z,180.00
2018-01-11T13:11:59.226Z,174.38
2018-01-11T13:12:59.259Z,168.75
2018-01-11T13:14:52.246Z,163.13
2018-01-11T13:15:52.306Z,163.13
2018-01-11T13:17:45.316Z,157.50
2018-01-11T13:18:45.347Z,157.50
2018-01-11T13:20:38.332Z,157.50
2018-01-11T13:21:38.390Z,157.50
2018-01-11T13:23:31.390Z,146.25
2018-01-11T13:24:31.433Z,140.63
2018-01-11T13:26:24.429Z,129.38
2018-01-11T13:27:24.496Z,123.75
2018-01-11T13:29:17.448Z,118.13
2018-01-11T13:30:17.506Z,118.13
2018-01-11T13:32:10.512Z,123.75
2018-01-11T13:33:10.548Z,123.75
2018-01-11T13:35:03.534Z,123.75
2018-01-11T13:36:03.589Z,123.75
2018-01-11T13:37:56.593Z,118.13
2018-01-11T13:38:56.631Z,118.13
2018-01-11T13:40:49.610Z,106.88
2018-01-11T13:41:49.672Z,101.25
2018-01-11T13:43:42.671Z,95.63
2018-01-11T13:44:42.708Z,90.00
2018-01-11T13:46:35.712Z,90.00
2018-01-11T13:47:35.751Z,90.00
2018-01-11T13:49:28.732Z,90.00
2018-01-11T13:50:28.787Z,90.00
2018-01-11T13:52:21.790Z,84.38
2018-01-11T13:53:21.829Z,84.38
2018-01-11T13:55:14.815Z,84.38
2018-01-11T13:56:14.874Z,90.00
2018-01-11T13:58:07.876Z,90.00
2018-01-11T13:59:07.917Z,90.00
2018-01-11T14:01:00.892Z,90.00
2018-01-11T14:02:00.952Z,90.00
2018-01-11T14:03:53.955Z,84.38
2018-01-11T14:04:53.992Z,78.75
2018-01-11T14:06:46.992Z,73.13
2018-01-11T14:07:47.030Z,73.13
2018-01-11T14:09:40.016Z,67.50
2018-01-11T14:10:40.075Z,61.88
2018-01-11T14:12:33.080Z,45.00
2018-01-11T14:13:33.115Z,45.00
2018-01-11T14:15:26.097Z,45.00
2018-01-11T14:16:26.157Z,50.63
2018-01-11T14:18:19.169Z,56.25
2018-01-11T14:19:19.201Z,50.63
2018-01-11T14:21:12.228Z,45.00
2018-01-11T14:22:12.238Z,45.00
2018-01-11T14:24:05.247Z,45.00
2018-01-11T14:25:05.277Z,45.00
2018-01-11T14:26:58.278Z,45.00
2018-01-11T14:27:58.317Z,45.00
2018-01-11T14:29:51.300Z,45.00
2018-01-11T14:30:51.354Z,45.00
2018-01-11T14:32:44.356Z,45.00
2018-01-11T14:33:44.394Z,45.00
2018-01-11T14:35:37.379Z,50.63
2018-01-11T14:36:37.432Z,50.63
2018-01-11T14:38:30.438Z,45.00
2018-01-11T14:39:30.493Z,45.00
2018-01-11T14:41:23.454Z,45.00
2018-01-11T14:42:23.511Z,45.00
2018-01-11T14:44:16.512Z,45.00
2018-01-11T14:45:16.550Z,45.00
2018-01-11T14:47:09.550Z,45.00
2018-01-11T14:48:09.591Z,50.63
2018-01-11T14:50:02.574Z,50.63
2018-01-11T14:51:02.633Z,50.63
2018-01-11T14:52:55.626Z,45.00
2018-01-11T14:53:55.683Z,45.00
2018-01-11T14:55:48.662Z,39.38
2018-01-11T14:56:48.718Z,39.38
2018-01-11T14:58:41.720Z,33.75
2018-01-11T14:59:41.844Z,33.75
2018-01-11T15:01:34.735Z,33.75
2018-01-11T15:02:34.793Z,33.75
2018-01-11T15:04:27.814Z,33.75
2018-01-11T15:05:27.837Z,28.13
2018-01-11T15:07:20.843Z,33.75
2018-01-11T15:08:20.885Z,33.75
2018-01-11T15:10:13.868Z,33.75
2018-01-11T15:11:13.923Z,33.75
2018-01-11T15:13:06.931Z,33.75
2018-01-11T15:14:06.984Z,33.75
2018-01-11T15:15:59.948Z,28.13
2018-01-11T15:17:00.002Z,28.13
2018-01-11T15:18:53.006Z,22.50
2018-01-11T15:19:53.044Z,22.50
2018-01-11T15:21:46.030Z,22.50
2018-01-11T15:22:46.081Z,22.50
2018-01-11T15:24:39.099Z,22.50
2018-01-11T15:25:39.123Z,16.88
2018-01-11T15:27:32.123Z,16.88
2018-01-11T15:28:32.159Z,16.88
2018-01-11T15:30:25.164Z,16.88
2018-01-11T15:31:25.199Z,16.88
2018-01-11T15:33:18.203Z,16.88
2018-01-11T15:34:18.237Z,16.88
2018-01-11T15:36:11.227Z,11.25
2018-01-11T15:37:11.276Z,11.25
2018-01-11T15:39:04.278Z,11.25
2018-01-11T15:40:04.334Z,5.63
2018-01-11T15:41:57.297Z,5.63
2018-01-11T15:42:57.394Z,5.63
2018-01-11T15:44:50.359Z,5.63
2018-01-11T15:45:50.391Z,5.63
2018-01-11T15:47:43.393Z,5.63
2018-01-11T15:48:43.427Z,0.00
2018-01-11T15:50:36.410Z,0.00
2018-01-11T15:51:36.469Z,0.00
2018-01-11T15:53:29.489Z,0.00
2018-01-11T15:54:29.506Z,0.00
2018-01-11T15:56:22.489Z,0.00
2018-01-11T15:57:22.549Z,0.00
2018-01-11T15:59:15.547Z,0.00
2018-01-11T16:00:15.584Z,0.00
2018-01-11T16:02:08.564Z,0.00
2018-01-11T16:03:08.621Z,0.00
2018-01-11T16:05:02.631Z,0.00
2018-01-11T16:06:01.727Z,0.00
2018-01-11T16:07:54.734Z,0.00
2018-01-11T16:08:54.765Z,0.00
2018-01-11T16:10:47.757Z,0.00
2018-01-11T16:11:47.812Z,0.00
2018-01-11T16:13:40.813Z,0.00
2018-01-11T16:14:40.845Z,0.00
2018-01-11T16:16:33.834Z,0.00
2018-01-11T16:17:33.894Z,0.00
2018-01-11T16:19:26.927Z,0.00
2018-01-11T16:20:26.968Z,0.00
2018-01-11T16:22:19.949Z,0.00
2018-01-11T16:23:20.003Z,0.00
2018-01-11T16:25:13.003Z,0.00
2018-01-11T16:26:13.045Z,0.00
2018-01-11T16:28:06.044Z,0.00
2018-01-11T16:29:06.076Z,0.00
2018-01-11T16:30:59.056Z,0.00
2018-01-11T16:31:59.113Z,0.00
2018-01-11T16:33:52.136Z,0.00
2018-01-11T16:34:52.149Z,0.00
2018-01-11T16:36:45.130Z,0.00
2018-01-11T16:37:45.188Z,0.00
2018-01-11T16:39:38.199Z,0.00
2018-01-11T16:40:38.230Z,0.00
2018-01-11T16:42:31.209Z,0.00
2018-01-11T16:43:31.264Z,0.00
2018-01-11T16:45:24.269Z,0.00
2018-01-11T16:46:24.304Z,0.00
2018-01-11T16:48:17.302Z,0.00
2018-01-11T16:49:17.341Z,0.00
2018-01-11T16:51:10.330Z,0.00
2018-01-11T16:52:10.381Z,0.00
2018-01-11T16:54:03.380Z,0.00
2018-01-11T16:55:03.419Z,0.00
2018-01-11T16:56:56.907Z,0.00
2018-01-11T16:57:56.966Z,0.00
2018-01-11T16:59:49.960Z,0.00
2018-01-11T17:00:49.997Z,0.00
2018-01-11T17:02:42.975Z,0.00
2018-01-11T17:03:43.032Z,0.00
2018-01-11T17:05:36.044Z,0.00
2018-01-11T17:06:36.079Z,0.00
2018-01-11T17:08:29.082Z,0.00
2018-01-11T17:09:29.121Z,0.00
2018-01-11T17:11:22.102Z,0.00
2018-01-11T17:12:22.159Z,0.00
2018-01-11T17:14:15.161Z,0.00
2018-01-11T17:15:15.199Z,0.00
2018-01-11T17:17:08.176Z,0.00
2018-01-11T17:18:08.235Z,0.00
2018-01-11T17:20:01.232Z,0.00
2018-01-11T17:21:01.269Z,0.00
2018-01-11T17:22:54.256Z,0.00
2018-01-11T17:23:54.312Z,0.00
2018-01-11T17:25:47.312Z,0.00
2018-01-11T17:26:47.349Z,0.00
2018-01-11T17:28:40.355Z,0.00
2018-01-11T17:29:40.388Z,0.00
2018-01-11T17:31:33.367Z,0.00
2018-01-11T17:32:33.424Z,0.00
2018-01-11T17:34:26.444Z,0.00
2018-01-11T17:35:26.460Z,0.00
2018-01-11T17:37:19.436Z,0.00
2018-01-11T17:38:19.585Z,0.00
2018-01-11T17:40:12.493Z,0.00
2018-01-11T17:41:12.532Z,0.00
2018-01-11T17:43:05.510Z,0.00
2018-01-11T17:44:05.574Z,0.00
2018-01-11T17:45:58.567Z,0.00
2018-01-11T17:46:58.605Z,0.00
2018-01-11T17:48:51.606Z,0.00
2018-01-11T17:49:51.646Z,0.00
2018-01-11T17:51:44.625Z,0.00
2018-01-11T17:52:44.680Z,0.00
2018-01-11T17:54:37.676Z,0.00
2018-01-11T17:55:37.716Z,0.00
2018-01-11T17:57:30.696Z,0.00
2018-01-11T17:58:30.773Z,0.00
2018-01-11T18:00:23.750Z,0.00
2018-01-11T18:01:23.791Z,0.00
2018-01-11T18:03:16.771Z,0.00
2018-01-11T18:04:16.827Z,0.00
2018-01-11T18:06:09.825Z,0.00
2018-01-11T18:07:09.867Z,0.00
2018-01-11T18:09:02.923Z,0.00
2018-01-11T18:10:03.208Z,0.00
2018-01-11T18:11:55.932Z,0.00
2018-01-11T18:12:55.989Z,0.00
2018-01-11T18:14:48.991Z,0.00
2018-01-11T18:15:49.079Z,0.00
2018-01-11T18:17:42.014Z,0.00
2018-01-11T18:18:42.072Z,0.00
2018-01-11T18:20:35.078Z,0.00
2018-01-11T18:21:35.115Z,0.00
2018-01-11T18:23:28.108Z,0.00
2018-01-11T18:24:28.159Z,0.00
2018-01-11T18:26:21.157Z,0.00
2018-01-11T18:27:21.192Z,0.00
2018-01-11T18:29:14.193Z,0.00
2018-01-11T18:30:14.229Z,0.00
2018-01-11T18:32:07.223Z,0.00
2018-01-11T18:33:07.296Z,0.00
2018-01-11T18:35:00.279Z,0.00
2018-01-11T18:36:00.316Z,0.00
2018-01-11T18:37:53.301Z,0.00
2018-01-11T18:38:53.356Z,0.00
2018-01-11T18:40:46.878Z,0.00
2018-01-11T18:41:46.903Z,0.00
2018-01-11T18:43:39.887Z,0.00
2018-01-11T18:44:39.939Z,0.00
2018-01-11T18:46:32.944Z,0.00